Time;durP1;ratioP1;P1;durP2;ratioP2;P2;SDS_P1;SDS_P2;PMS_P1;PMS_P2;Temp;Humidity;BMP_temperature;BMP_pressure;BME280_temperature;BME280_humidity;BME280_pressure;Samples;Min_cycle;Max_cycle;Signal;HPM_P1;HPM_P2
2023/07/25 00:01:21;;;;;;;0.50;0.40;;;14.80;99.90;;;;;;5057770;28;20437;-82
2023/07/25 00:03:48;;;;;;;0.50;0.40;;;14.80;99.90;;;;;;5057057;28;20455;-83
2023/07/25 00:06:15;;;;;;;0.50;0.40;;;14.80;99.90;;;;;;5059172;28;20441;-83
2023/07/25 00:08:43;;;;;;;0.50;0.40;;;14.80;99.90;;;;;;5062759;28;20467;-83
2023/07/25 00:11:13;;;;;;;1.13;1.13;;;14.80;99.90;;;;;;5057666;28;20460;-83
2023/07/25 00:13:40;;;;;;;0.50;0.40;;;14.80;99.90;;;;;;5059853;28;20959;-81
2023/07/25 00:16:07;;;;;;;0.50;0.40;;;14.80;99.90;;;;;;5059572;28;20443;-82
2023/07/25 00:18:34;;;;;;;0.50;0.40;;;14.80;99.90;;;;;;5057232;28;20507;-82
2023/07/25 00:21:00;;;;;;;0.50;0.40;;;14.80;99.90;;;;;;5064351;28;20463;-83
2023/07/25 00:23:27;;;;;;;0.50;0.40;;;14.80;99.90;;;;;;5048656;28;20441;-82
2023/07/25 00:25:55;;;;;;;0.50;0.40;;;14.80;99.90;;;;;;5057068;28;20437;-82
2023/07/25 00:28:22;;;;;;;0.50;0.33;;;14.80;99.90;;;;;;5058320;28;20499;-82
2023/07/25 00:30:49;;;;;;;0.50;0.30;;;14.80;99.90;;;;;;5060406;28;20463;-83
2023/07/25 00:33:16;;;;;;;0.50;0.40;;;14.80;99.90;;;;;;5057302;28;20443;-82
2023/07/25 00:35:43;;;;;;;0.50;0.40;;;14.80;99.90;;;;;;5053814;28;20446;-82
2023/07/25 00:38:09;;;;;;;0.50;0.40;;;14.70;99.90;;;;;;5058519;28;20928;-82
2023/07/25 00:40:39;;;;;;;0.50;0.33;;;14.80;99.90;;;;;;5056670;28;20468;-83
2023/07/25 00:43:07;;;;;;;0.50;0.40;;;14.80;99.90;;;;;;5056508;28;20444;-83
2023/07/25 00:45:34;;;;;;;0.50;0.30;;;14.80;99.90;;;;;;5059426;28;20432;-83
2023/07/25 00:48:01;;;;;;;0.50;0.40;;;14.80;99.90;;;;;;5059538;28;20452;-82
2023/07/25 00:50:28;;;;;;;0.50;0.40;;;14.80;99.90;;;;;;5059418;28;20452;-81
2023/07/25 00:52:58;;;;;;;0.70;0.40;;;14.70;99.90;;;;;;5059163;28;20451;-82
2023/07/25 00:55:24;;;;;;;0.50;0.40;;;14.70;99.90;;;;;;5056449;28;20449;-81
2023/07/25 00:57:51;;;;;;;0.50;0.40;;;14.80;99.90;;;;;;5055872;28;20456;-82
2023/07/25 01:00:19;;;;;;;0.50;0.40;;;14.70;99.90;;;;;;5056881;28;20488;-83
2023/07/25 01:02:46;;;;;;;0.50;0.40;;;14.70;99.90;;;;;;5058846;28;20448;-83
2023/07/25 01:05:13;;;;;;;0.50;0.40;;;14.70;99.90;;;;;;5058533;28;20817;-82
2023/07/25 01:07:40;;;;;;;0.50;0.40;;;14.70;99.90;;;;;;5056488;28;20436;-82
2023/07/25 01:10:08;;;;;;;0.50;0.40;;;14.70;99.90;;;;;;5055553;28;20472;-81
2023/07/25 01:12:34;;;;;;;0.50;0.40;;;14.70;99.90;;;;;;5063944;28;20445;-82
2023/07/25 01:15:01;;;;;;;0.50;0.40;;;14.70;99.90;;;;;;5055771;28;20449;-82
2023/07/25 01:17:29;;;;;;;0.50;0.40;;;14.70;99.90;;;;;;5058109;28;20439;-82
2023/07/25 01:19:56;;;;;;;0.50;0.40;;;14.70;99.90;;;;;;5059705;28;20492;-80
2023/07/25 01:22:26;;;;;;;0.50;0.30;;;14.70;99.90;;;;;;5050674;28;20937;-83
2023/07/25 01:24:55;;;;;;;0.50;0.40;;;14.60;99.90;;;;;;5058995;28;20444;-81
2023/07/25 01:27:22;;;;;;;0.50;0.40;;;14.60;99.90;;;;;;5057058;28;20443;-82
2023/07/25 01:29:49;;;;;;;0.50;0.40;;;14.60;99.90;;;;;;5055314;28;20524;-83
2023/07/25 01:32:16;;;;;;;0.50;0.40;;;14.60;99.90;;;;;;5056487;28;20519;-83
2023/07/25 01:34:43;;;;;;;0.50;0.40;;;14.60;99.90;;;;;;5058527;28;20464;-83
2023/07/25 01:37:10;;;;;;;0.50;0.40;;;14.60;99.90;;;;;;5059085;28;20454;-81
2023/07/25 01:39:37;;;;;;;0.50;0.40;;;14.60;99.90;;;;;;5059140;28;20553;-81
2023/07/25 01:42:06;;;;;;;0.50;0.40;;;14.60;99.90;;;;;;5062325;28;20522;-83
2023/07/25 01:44:33;;;;;;;0.50;0.37;;;14.60;99.90;;;;;;5059175;28;20940;-82
2023/07/25 01:46:59;;;;;;;0.50;0.40;;;14.60;99.90;;;;;;5059245;28;20539;-81
2023/07/25 01:49:26;;;;;;;0.50;0.40;;;14.50;99.90;;;;;;5061339;28;20466;-82
2023/07/25 01:51:53;;;;;;;0.50;0.40;;;14.50;99.90;;;;;;5056465;28;20458;-82
2023/07/25 01:54:20;;;;;;;0.50;0.40;;;14.40;99.90;;;;;;5059837;28;20428;-81
2023/07/25 01:56:47;;;;;;;0.50;0.40;;;14.40;99.90;;;;;;5062269;28;20446;-83
2023/07/25 01:59:15;;;;;;;0.50;0.40;;;14.30;99.90;;;;;;5060589;28;21849;-81
2023/07/25 02:01:41;;;;;;;0.50;0.37;;;14.20;99.90;;;;;;5058610;28;20520;-82
2023/07/25 02:04:08;;;;;;;0.50;0.40;;;14.10;99.90;;;;;;5058555;28;20447;-82
2023/07/25 02:06:35;;;;;;;0.50;0.30;;;14.00;99.90;;;;;;5062254;28;20451;-82
2023/07/25 02:09:02;;;;;;;0.50;0.40;;;13.90;99.90;;;;;;5062626;28;20441;-83
2023/07/25 02:11:29;;;;;;;0.50;0.40;;;13.80;99.90;;;;;;5058921;28;21042;-83
2023/07/25 02:13:56;;;;;;;0.50;0.40;;;13.80;99.90;;;;;;5057522;28;20440;-81
2023/07/25 02:16:24;;;;;;;0.50;0.40;;;13.80;99.90;;;;;;5059839;28;20479;-82
2023/07/25 02:18:51;;;;;;;0.50;0.40;;;13.70;99.90;;;;;;5061614;28;20435;-81
2023/07/25 02:21:17;;;;;;;0.50;0.40;;;13.60;99.90;;;;;;5060903;28;20490;-82
2023/07/25 02:23:44;;;;;;;0.50;0.40;;;13.60;99.90;;;;;;5056697;28;20543;-81
2023/07/25 02:26:11;;;;;;;0.50;0.40;;;13.50;99.90;;;;;;5062171;28;20445;-80
2023/07/25 02:28:38;;;;;;;0.50;0.40;;;13.50;99.90;;;;;;5046516;28;20448;-81
2023/07/25 02:31:04;;;;;;;0.50;0.40;;;13.40;99.90;;;;;;5056714;28;20482;-83
2023/07/25 02:33:33;;;;;;;0.50;0.40;;;13.40;99.90;;;;;;5057895;28;20480;-80
2023/07/25 02:36:00;;;;;;;0.50;0.40;;;13.30;99.90;;;;;;5057763;28;20447;-80
2023/07/25 02:38:27;;;;;;;0.50;0.40;;;13.30;99.90;;;;;;5054814;28;20447;-81
2023/07/25 02:40:53;;;;;;;0.50;0.40;;;13.30;99.90;;;;;;5056176;28;20484;-81
2023/07/25 02:43:22;;;;;;;0.50;0.40;;;13.20;99.90;;;;;;5056733;28;20445;-81
2023/07/25 02:45:49;;;;;;;0.50;0.40;;;13.20;99.90;;;;;;5059858;28;20453;-80
2023/07/25 02:48:16;;;;;;;0.50;0.40;;;13.10;99.90;;;;;;5045408;28;20440;-80
2023/07/25 02:50:44;;;;;;;0.50;0.40;;;13.10;99.90;;;;;;5045197;28;20522;-80
2023/07/25 02:53:10;;;;;;;0.50;0.40;;;13.10;99.90;;;;;;5050917;28;20436;-80
2023/07/25 02:55:37;;;;;;;0.50;0.50;;;13.00;99.90;;;;;;5049610;28;20829;-82
2023/07/25 02:58:04;;;;;;;0.50;0.40;;;13.00;99.90;;;;;;5048813;28;20444;-80
2023/07/25 03:00:31;;;;;;;0.50;0.40;;;13.00;99.90;;;;;;5051260;28;20484;-80
2023/07/25 03:02:58;;;;;;;0.50;0.40;;;12.90;99.90;;;;;;5052177;28;20446;-82
2023/07/25 03:05:28;;;;;;;0.50;0.40;;;12.90;99.90;;;;;;5051836;28;20444;-80
2023/07/25 03:07:56;;;;;;;0.50;0.40;;;12.90;99.90;;;;;;5048516;28;20441;-80
2023/07/25 03:10:23;;;;;;;0.50;0.40;;;12.90;99.90;;;;;;5049674;28;21031;-80
2023/07/25 03:12:50;;;;;;;0.50;0.40;;;12.90;99.90;;;;;;5054440;28;20448;-80
2023/07/25 03:15:16;;;;;;;0.50;0.40;;;12.90;99.90;;;;;;5053140;28;20447;-80
2023/07/25 03:17:43;;;;;;;0.50;0.40;;;12.80;99.90;;;;;;5048264;28;20452;-80
2023/07/25 03:20:11;;;;;;;0.50;0.40;;;12.80;99.90;;;;;;5049130;28;20498;-80
2023/07/25 03:22:38;;;;;;;0.50;0.40;;;12.80;99.90;;;;;;5053445;28;20459;-79
2023/07/25 03:25:07;;;;;;;0.50;0.40;;;12.80;99.90;;;;;;5052766;28;20546;-80
2023/07/25 03:27:33;;;;;;;0.50;0.40;;;12.80;99.90;;;;;;5049727;28;20534;-80
2023/07/25 03:30:00;;;;;;;0.50;0.40;;;12.90;99.90;;;;;;5055090;28;20458;-80
2023/07/25 03:32:27;;;;;;;0.50;0.40;;;12.90;99.90;;;;;;5051250;28;20445;-81
2023/07/25 03:34:54;;;;;;;0.50;0.40;;;12.90;99.90;;;;;;5049811;28;20444;-81
2023/07/25 03:37:20;;;;;;;0.50;0.40;;;12.90;99.90;;;;;;5048645;28;20441;-80
2023/07/25 03:39:47;;;;;;;0.50;0.40;;;13.00;99.90;;;;;;5051730;28;21094;-82
2023/07/25 03:42:15;;;;;;;0.50;0.40;;;13.00;99.90;;;;;;5052268;28;20448;-82
2023/07/25 03:44:42;;;;;;;0.50;0.40;;;13.10;99.90;;;;;;5049658;28;20445;-80
2023/07/25 03:47:09;;;;;;;0.50;0.37;;;13.10;99.90;;;;;;5050346;28;20519;-80
2023/07/25 03:49:36;;;;;;;0.50;0.40;;;13.10;99.90;;;;;;5050159;28;20460;-79
2023/07/25 03:52:02;;;;;;;0.50;0.40;;;13.10;99.90;;;;;;5047842;28;20534;-81
2023/07/25 03:54:29;;;;;;;0.50;0.40;;;13.10;99.90;;;;;;5052302;28;20446;-79
2023/07/25 03:56:56;;;;;;;0.50;0.40;;;13.10;99.90;;;;;;5053722;28;20446;-82
2023/07/25 03:59:24;;;;;;;0.50;0.40;;;13.10;99.90;;;;;;5049561;28;20492;-78
2023/07/25 04:01:51;;;;;;;0.50;0.40;;;13.10;99.90;;;;;;5054342;28;20450;-81
2023/07/25 04:04:18;;;;;;;0.50;0.40;;;13.20;99.90;;;;;;5054253;28;20515;-79
2023/07/25 04:06:44;;;;;;;0.50;0.40;;;13.20;99.90;;;;;;5051188;28;20444;-79
2023/07/25 04:09:11;;;;;;;0.60;0.60;;;13.10;99.90;;;;;;5057039;28;20436;-80
2023/07/25 04:11:38;;;;;;;0.50;0.40;;;13.20;99.90;;;;;;5044863;28;20452;-80
2023/07/25 04:14:05;;;;;;;0.53;0.53;;;13.20;99.90;;;;;;5052792;28;20447;-79
2023/07/25 04:16:33;;;;;;;0.50;0.40;;;13.20;99.90;;;;;;5053821;28;20812;-80
2023/07/25 04:19:00;;;;;;;0.60;0.60;;;13.20;99.90;;;;;;5053761;28;20447;-80
2023/07/25 04:21:26;;;;;;;0.50;0.40;;;13.20;99.90;;;;;;5052351;28;20477;-79
2023/07/25 04:23:53;;;;;;;0.50;0.40;;;13.20;99.90;;;;;;5050915;28;20450;-81
2023/07/25 04:26:20;;;;;;;0.50;0.40;;;13.20;99.90;;;;;;5048406;28;20454;-80
2023/07/25 04:28:48;;;;;;;0.50;0.40;;;13.20;99.90;;;;;;5047863;28;20454;-80
2023/07/25 04:31:15;;;;;;;0.50;0.40;;;13.10;99.90;;;;;;5048156;28;20475;-79
2023/07/25 04:33:43;;;;;;;0.50;0.40;;;13.20;99.90;;;;;;5051624;28;20512;-80
2023/07/25 04:36:09;;;;;;;0.50;0.40;;;13.10;99.90;;;;;;5052743;28;20446;-80
2023/07/25 04:38:36;;;;;;;0.50;0.40;;;13.10;99.90;;;;;;5050255;28;20440;-80
2023/07/25 04:41:03;;;;;;;0.50;0.40;;;13.10;99.90;;;;;;5049597;28;20485;-80
2023/07/25 04:43:30;;;;;;;0.50;0.40;;;13.00;99.90;;;;;;5048889;28;20444;-79
2023/07/25 04:45:56;;;;;;;0.50;0.40;;;13.00;99.90;;;;;;5051194;28;20442;-82
2023/07/25 04:48:23;;;;;;;0.50;0.40;;;13.00;99.90;;;;;;5051152;28;20440;-79
2023/07/25 04:50:51;;;;;;;0.50;0.40;;;13.00;99.90;;;;;;5049746;28;20452;-80
2023/07/25 04:53:18;;;;;;;0.50;0.40;;;13.00;99.90;;;;;;5048230;28;20440;-80
2023/07/25 04:55:45;;;;;;;0.50;0.40;;;13.10;99.90;;;;;;5049479;28;20444;-79
2023/07/25 04:58:12;;;;;;;0.50;0.40;;;13.20;99.90;;;;;;5048910;28;20473;-79
2023/07/25 05:00:38;;;;;;;0.50;0.40;;;13.20;99.90;;;;;;5047816;28;20479;-79
2023/07/25 05:03:05;;;;;;;0.50;0.40;;;13.20;99.90;;;;;;5048959;28;20451;-79
2023/07/25 05:05:32;;;;;;;0.50;0.40;;;13.20;99.90;;;;;;5051329;28;20534;-82
2023/07/25 05:08:00;;;;;;;0.50;0.40;;;13.20;99.90;;;;;;5052753;28;20459;-80
2023/07/25 05:10:27;;;;;;;0.50;0.40;;;13.20;99.90;;;;;;5051041;28;20464;-79
2023/07/25 05:12:53;;;;;;;0.50;0.40;;;13.20;99.90;;;;;;5040508;28;20440;-79
2023/07/25 05:15:20;;;;;;;0.50;0.40;;;13.20;99.90;;;;;;5049343;28;20871;-81
2023/07/25 05:17:47;;;;;;;0.50;0.40;;;13.30;99.90;;;;;;5065296;28;20955;-81
2023/07/25 05:20:14;;;;;;;0.50;0.40;;;13.30;99.90;;;;;;5057806;28;20508;-81
2023/07/25 05:22:41;;;;;;;0.50;0.40;;;13.30;99.90;;;;;;5059066;28;20446;-80
2023/07/25 05:25:09;;;;;;;0.50;0.40;;;13.40;99.90;;;;;;5056028;28;20449;-81
2023/07/25 05:27:36;;;;;;;0.50;0.40;;;13.50;99.90;;;;;;5057065;28;20445;-80
2023/07/25 05:30:03;;;;;;;0.50;0.40;;;13.50;99.90;;;;;;5056971;28;20456;-82
2023/07/25 05:32:30;;;;;;;0.50;0.40;;;13.60;99.90;;;;;;5059568;28;20463;-80
2023/07/25 05:34:57;;;;;;;0.50;0.40;;;13.70;99.90;;;;;;5062753;28;20494;-83
2023/07/25 05:37:33;;;;;;;0.50;0.40;;;13.80;99.90;;;;;;5063709;28;20453;-82
2023/07/25 05:40:00;;;;;;;0.50;0.40;;;13.80;99.90;;;;;;5052342;28;20485;-81
2023/07/25 05:42:28;;;;;;;0.50;0.40;;;13.90;99.90;;;;;;5060136;28;20454;-82
2023/07/25 05:44:55;;;;;;;0.50;0.30;;;14.00;99.90;;;;;;5062950;28;20454;-82
2023/07/25 05:47:22;;;;;;;0.50;0.40;;;14.00;99.90;;;;;;5063191;28;20511;-83
2023/07/25 05:49:48;;;;;;;0.50;0.40;;;14.20;99.90;;;;;;5060821;28;20477;-82
2023/07/25 05:52:16;;;;;;;0.50;0.40;;;14.20;99.90;;;;;;5059868;28;20467;-82
2023/07/25 05:54:44;;;;;;;0.50;0.33;;;14.40;99.90;;;;;;5059125;28;20503;-82
2023/07/25 05:57:11;;;;;;;0.50;0.40;;;14.60;99.90;;;;;;5059923;28;20448;-81
2023/07/25 05:59:40;;;;;;;0.50;0.40;;;14.80;99.90;;;;;;5060534;28;20471;-83
2023/07/25 06:02:08;;;;;;;0.50;0.37;;;15.00;99.90;;;;;;5057961;28;20498;-82
2023/07/25 06:04:35;;;;;;;0.50;0.40;;;15.10;99.90;;;;;;5059355;28;20444;-84
2023/07/25 06:07:01;;;;;;;0.50;0.40;;;15.40;99.90;;;;;;5063668;28;20508;-81
2023/07/25 06:09:28;;;;;;;1.47;0.70;;;15.50;99.90;;;;;;5055044;28;20498;-82
2023/07/25 06:11:55;;;;;;;0.50;0.40;;;15.60;99.90;;;;;;5070897;28;20438;-82
2023/07/25 06:14:22;;;;;;;0.50;0.40;;;15.70;99.90;;;;;;5055572;28;20445;-81
2023/07/25 06:16:50;;;;;;;0.50;0.40;;;15.70;99.90;;;;;;5061717;28;20517;-83
2023/07/25 06:19:17;;;;;;;0.50;0.37;;;15.70;99.90;;;;;;5071294;28;20555;-83
2023/07/25 06:21:43;;;;;;;0.50;0.40;;;15.50;99.90;;;;;;5061695;28;20467;-83
2023/07/25 06:24:10;;;;;;;0.50;0.30;;;15.50;99.90;;;;;;5063516;28;20482;-82
2023/07/25 06:26:38;;;;;;;0.50;0.40;;;15.50;99.90;;;;;;5062389;28;20793;-81
2023/07/25 06:29:04;;;;;;;0.50;0.40;;;15.50;99.90;;;;;;5059241;28;20453;-83
2023/07/25 06:31:31;;;;;;;0.50;0.40;;;15.60;99.90;;;;;;5057881;28;20452;-82
2023/07/25 06:33:59;;;;;;;0.50;0.40;;;15.50;99.90;;;;;;5049056;28;20790;-83
2023/07/25 06:36:26;;;;;;;0.50;0.40;;;15.60;99.90;;;;;;5057384;28;20448;-82
2023/07/25 06:38:53;;;;;;;0.50;0.40;;;15.70;99.90;;;;;;5056594;28;20440;-82
2023/07/25 06:41:20;;;;;;;0.50;0.40;;;15.90;99.90;;;;;;5055714;28;20487;-82
2023/07/25 06:43:46;;;;;;;0.50;0.40;;;16.20;99.90;;;;;;5058289;28;20455;-84
2023/07/25 06:46:13;;;;;;;1.03;1.03;;;16.90;99.90;;;;;;5067979;28;20440;-83
2023/07/25 06:48:40;;;;;;;0.50;0.40;;;17.50;99.90;;;;;;5059997;28;20891;-82
2023/07/25 06:51:08;;;;;;;0.50;0.40;;;17.90;99.90;;;;;;5059604;28;20522;-84
2023/07/25 06:53:35;;;;;;;0.50;0.37;;;18.60;99.90;;;;;;5052183;28;20520;-83
2023/07/25 06:56:01;;;;;;;0.50;0.50;;;19.10;99.90;;;;;;5056002;28;20452;-83
2023/07/25 06:58:28;;;;;;;0.50;0.30;;;19.20;99.90;;;;;;5056241;28;20450;-83
2023/07/25 07:00:55;;;;;;;0.50;0.30;;;19.30;99.90;;;;;;5058790;28;20494;-83
2023/07/25 07:03:22;;;;;;;0.50;0.40;;;19.70;99.90;;;;;;5053393;28;20444;-84
2023/07/25 07:05:55;;;;;;;0.50;0.30;;;19.80;99.90;;;;;;5055941;28;20539;-82
2023/07/25 07:08:24;;;;;;;0.50;0.40;;;20.20;99.90;;;;;;5056529;28;20475;-83
2023/07/25 07:10:53;;;;;;;0.50;0.40;;;20.90;99.90;;;;;;5049899;28;20864;-84
2023/07/25 07:13:20;;;;;;;0.50;0.43;;;21.50;99.90;;;;;;5062168;28;20437;-83
2023/07/25 07:15:47;;;;;;;0.50;0.40;;;22.00;99.90;;;;;;5064702;28;20448;-82
2023/07/25 07:18:14;;;;;;;0.50;0.37;;;22.10;99.90;;;;;;5056545;28;20444;-82
2023/07/25 07:20:44;;;;;;;0.50;0.40;;;22.80;99.90;;;;;;5057803;28;20490;-81
2023/07/25 07:23:11;;;;;;;0.50;0.40;;;23.50;99.90;;;;;;5060636;28;20440;-82
2023/07/25 07:25:39;;;;;;;0.50;0.40;;;23.60;99.90;;;;;;5060793;28;20484;-82
2023/07/25 07:28:06;;;;;;;0.50;0.40;;;23.60;99.90;;;;;;5049251;28;20440;-81
2023/07/25 07:30:33;;;;;;;0.50;0.40;;;23.40;99.90;;;;;;5056886;28;20464;-81
2023/07/25 07:32:59;;;;;;;0.50;0.40;;;22.90;99.90;;;;;;5064483;28;20471;-81
2023/07/25 07:35:26;;;;;;;0.50;0.40;;;22.60;99.90;;;;;;5056790;28;20442;-81
2023/07/25 07:37:53;;;;;;;0.50;0.30;;;22.50;99.90;;;;;;5056413;28;20443;-81
2023/07/25 07:40:20;;;;;;;0.50;0.40;;;22.30;99.90;;;;;;5056942;28;21040;-82
2023/07/25 07:42:48;;;;;;;0.50;0.30;;;22.20;99.90;;;;;;5056287;28;20451;-80
2023/07/25 07:45:15;;;;;;;0.50;0.37;;;22.00;99.90;;;;;;5064226;28;20507;-82
2023/07/25 07:47:41;;;;;;;0.50;0.40;;;21.70;99.90;;;;;;5056485;28;20527;-80
2023/07/25 07:50:09;;;;;;;0.50;0.30;;;21.70;99.90;;;;;;5059602;28;20527;-80
2023/07/25 07:52:40;;;;;;;0.50;0.30;;;21.50;99.90;;;;;;5059917;28;20440;-81
2023/07/25 07:55:08;;;;;;;0.50;0.40;;;21.40;99.90;;;;;;5047756;28;20445;-78
2023/07/25 07:57:39;;;;;;;0.50;0.40;;;21.10;99.90;;;;;;5055191;28;20827;-79
2023/07/25 08:00:08;;;;;;;0.50;0.40;;;20.90;99.90;;;;;;5058494;28;20455;-82
2023/07/25 08:02:35;;;;;;;0.50;0.40;;;20.60;99.90;;;;;;5053136;28;20468;-82
2023/07/25 08:05:02;;;;;;;0.50;0.30;;;20.50;99.90;;;;;;5058217;28;20540;-80
2023/07/25 08:07:29;;;;;;;0.50;0.30;;;20.40;99.90;;;;;;5059331;28;20820;-82
2023/07/25 08:09:56;;;;;;;0.50;0.40;;;20.20;99.90;;;;;;5051218;28;20466;-82
2023/07/25 08:12:23;;;;;;;0.50;0.30;;;20.20;99.90;;;;;;5067550;28;20475;-82
2023/07/25 08:14:50;;;;;;;0.50;0.33;;;20.10;99.90;;;;;;5058142;28;20504;-81
2023/07/25 08:17:19;;;;;;;0.50;0.30;;;20.20;99.90;;;;;;5059378;28;20451;-82
2023/07/25 08:19:45;;;;;;;0.50;0.40;;;20.10;99.90;;;;;;5058656;28;20463;-81
2023/07/25 08:22:12;;;;;;;0.50;0.40;;;20.10;99.90;;;;;;5055209;28;20473;-81
2023/07/25 08:24:40;;;;;;;0.50;0.30;;;20.10;99.90;;;;;;5055308;28;20441;-81
2023/07/25 08:27:08;;;;;;;0.50;0.40;;;20.30;99.90;;;;;;5064216;28;21087;-80
2023/07/25 08:29:38;;;;;;;0.50;0.37;;;20.40;99.90;;;;;;5056923;28;20467;-81
2023/07/25 08:32:07;;;;;;;0.50;0.40;;;20.50;99.90;;;;;;5057928;28;20444;-80
2023/07/25 08:34:35;;;;;;;0.50;0.40;;;20.40;99.90;;;;;;5057925;28;20445;-82
2023/07/25 08:37:02;;;;;;;0.50;0.40;;;20.20;99.90;;;;;;5057554;28;20504;-82
2023/07/25 08:39:29;;;;;;;0.50;0.40;;;20.40;99.90;;;;;;5055511;28;20465;-81
2023/07/25 08:41:58;;;;;;;0.50;0.40;;;20.60;99.90;;;;;;5057571;28;20485;-81
2023/07/25 08:44:26;;;;;;;0.50;0.40;;;21.00;99.90;;;;;;5058382;28;20782;-82
2023/07/25 08:46:55;;;;;;;0.50;0.30;;;21.20;99.90;;;;;;5058189;28;20439;-83
2023/07/25 08:49:23;;;;;;;0.50;0.40;;;21.40;99.90;;;;;;5055006;28;20531;-82
2023/07/25 08:51:53;;;;;;;0.50;0.40;;;21.60;99.90;;;;;;5055565;28;20448;-81
2023/07/25 08:54:26;;;;;;;0.50;0.40;;;21.70;99.90;;;;;;5057864;28;20461;-81
2023/07/25 08:56:54;;;;;;;0.50;0.40;;;21.90;99.90;;;;;;5058109;28;20447;-83
2023/07/25 08:59:21;;;;;;;0.50;0.40;;;21.90;99.90;;;;;;5056170;28;20468;-80
2023/07/25 09:01:48;;;;;;;0.50;0.40;;;21.90;99.90;;;;;;5063777;28;20476;-81
2023/07/25 09:04:16;;;;;;;0.50;0.40;;;22.00;99.90;;;;;;5050605;28;20471;-81
2023/07/25 09:06:42;;;;;;;0.50;0.30;;;22.10;99.90;;;;;;5059232;28;20458;-80
2023/07/25 09:09:11;;;;;;;0.50;0.30;;;22.40;99.90;;;;;;5055832;28;20504;-82
2023/07/25 09:11:38;;;;;;;0.50;0.33;;;22.70;99.90;;;;;;5056072;28;20444;-80
2023/07/25 09:14:05;;;;;;;0.50;0.40;;;22.80;99.90;;;;;;5057249;28;20441;-77
2023/07/25 09:16:33;;;;;;;0.50;0.30;;;22.80;99.90;;;;;;5059496;28;20439;-81
2023/07/25 09:19:00;;;;;;;0.50;0.40;;;23.00;99.90;;;;;;5056999;28;20458;-81
2023/07/25 09:21:28;;;;;;;0.50;0.40;;;23.10;99.90;;;;;;5055450;28;20555;-81
2023/07/25 09:23:57;;;;;;;0.50;0.37;;;23.10;99.90;;;;;;5054920;28;20433;-83
2023/07/25 09:26:26;;;;;;;0.50;0.33;;;23.20;99.90;;;;;;5058654;28;20449;-81
2023/07/25 09:28:54;;;;;;;0.50;0.40;;;23.30;99.90;;;;;;5058593;28;20508;-82
2023/07/25 09:31:22;;;;;;;0.50;0.30;;;23.60;99.90;;;;;;5055474;28;20452;-80
2023/07/25 09:33:50;;;;;;;0.50;0.30;;;23.70;99.90;;;;;;5054922;28;20535;-81
2023/07/25 09:36:18;;;;;;;0.50;0.40;;;24.00;99.90;;;;;;5050721;28;20468;-81
2023/07/25 09:38:50;;;;;;;0.50;0.40;;;24.50;99.90;;;;;;5057599;28;20512;-81
2023/07/25 09:41:17;;;;;;;0.50;0.30;;;25.20;99.90;;;;;;5056781;28;20483;-80
2023/07/25 09:43:45;;;;;;;0.50;0.40;;;25.60;99.90;;;;;;5055618;28;20454;-80
2023/07/25 09:46:12;;;;;;;0.50;0.30;;;25.50;99.90;;;;;;5051815;28;20522;-81
2023/07/25 09:48:43;;;;;;;0.50;0.40;;;25.30;99.90;;;;;;5051581;28;20447;-80
2023/07/25 09:51:11;;;;;;;0.50;0.40;;;24.80;99.90;;;;;;5053597;28;20472;-80
2023/07/25 09:53:38;;;;;;;0.50;0.40;;;24.30;99.90;;;;;;5055449;28;20467;-80
2023/07/25 09:56:06;;;;;;;0.50;0.30;;;23.60;99.90;;;;;;5052348;28;20442;-80
2023/07/25 09:58:34;;;;;;;0.50;0.40;;;22.80;99.90;;;;;;5049737;28;20510;-79
2023/07/25 10:01:04;;;;;;;0.50;0.33;;;22.20;99.90;;;;;;5052891;28;20453;-79
2023/07/25 10:03:31;;;;;;;0.50;0.30;;;21.50;99.90;;;;;;5057784;28;20446;-79
2023/07/25 10:05:58;;;;;;;0.50;0.33;;;21.00;99.90;;;;;;5056739;28;20447;-80
2023/07/25 10:08:26;;;;;;;0.50;0.40;;;20.50;99.90;;;;;;5056987;28;20893;-80
2023/07/25 10:10:55;;;;;;;0.50;0.40;;;20.10;99.90;;;;;;5059099;28;20465;-81
2023/07/25 10:13:22;;;;;;;0.50;0.40;;;19.70;99.90;;;;;;5051020;28;20437;-81
2023/07/25 10:15:50;;;;;;;0.50;0.40;;;19.50;99.90;;;;;;5058988;28;20435;-81
2023/07/25 10:18:27;;;;;;;0.50;0.40;;;19.20;99.90;;;;;;5060864;28;20420;-80
2023/07/25 10:20:55;;;;;;;0.50;0.43;;;19.00;99.90;;;;;;5061781;28;20455;-81
2023/07/25 10:23:30;;;;;;;0.50;0.33;;;18.80;99.90;;;;;;5050559;28;20536;-80
2023/07/25 10:26:52;;;;;;;0.50;0.33;;;18.60;99.90;;;;;;5058241;28;20449;-81
2023/07/25 10:29:37;;;;;;;0.50;0.40;;;18.50;99.90;;;;;;5062521;28;20962;-81
2023/07/25 10:32:04;;;;;;;0.50;0.40;;;18.40;99.90;;;;;;5053533;28;20442;-80
2023/07/25 10:34:46;;;;;;;0.50;0.40;;;18.40;99.90;;;;;;5062033;28;20448;-82
2023/07/25 10:37:21;;;;;;;0.50;0.40;;;18.40;99.90;;;;;;5059610;28;20538;-80
2023/07/25 10:40:01;;;;;;;0.50;0.40;;;18.30;99.90;;;;;;5059075;28;20503;-82
2023/07/25 10:42:41;;;;;;;0.50;0.40;;;18.30;99.90;;;;;;5051460;28;20476;-81
2023/07/25 10:45:08;;;;;;;0.50;0.40;;;18.40;99.90;;;;;;5057939;28;20445;-81
2023/07/25 10:47:45;;;;;;;0.50;0.30;;;18.60;99.90;;;;;;5059656;28;20440;-80
2023/07/25 10:50:17;;;;;;;0.50;0.40;;;18.90;99.90;;;;;;5056738;28;20514;-79
2023/07/25 10:52:45;;;;;;;0.50;0.30;;;19.20;99.90;;;;;;5055968;28;20445;-81
2023/07/25 10:55:12;;;;;;;0.50;0.30;;;19.50;99.90;;;;;;5065042;28;20451;-80
2023/07/25 10:57:38;;;;;;;0.50;0.40;;;20.30;99.90;;;;;;5056839;28;20448;-82
2023/07/25 11:00:08;;;;;;;0.50;0.30;;;21.50;99.90;;;;;;5058674;28;20469;-81
2023/07/25 11:02:36;;;;;;;0.50;0.40;;;22.70;99.90;;;;;;5061716;28;20476;-82
2023/07/25 11:05:23;;;;;;;1.13;0.97;;;24.00;99.90;;;;;;5060765;28;20437;-82
2023/07/25 11:07:51;;;;;;;0.50;0.40;;;24.40;99.90;;;;;;5061231;28;20440;-82
2023/07/25 11:10:22;;;;;;;0.50;0.40;;;24.00;99.90;;;;;;5058229;28;20468;-82
2023/07/25 11:12:51;;;;;;;0.50;0.30;;;23.10;99.90;;;;;;5063525;28;20542;-82
2023/07/25 11:15:18;;;;;;;0.50;0.40;;;22.20;99.90;;;;;;5058634;28;20474;-82
2023/07/25 11:17:45;;;;;;;0.50;0.40;;;21.10;99.90;;;;;;5063763;28;20448;-81
2023/07/25 11:20:13;;;;;;;0.50;0.40;;;20.10;99.90;;;;;;5059197;28;20470;-80
2023/07/25 11:22:42;;;;;;;0.50;0.40;;;19.30;99.90;;;;;;5049586;28;20491;-81
2023/07/25 11:25:09;;;;;;;0.50;0.30;;;18.70;99.90;;;;;;5055176;28;20493;-79
2023/07/25 11:27:40;;;;;;;0.50;0.40;;;18.20;99.90;;;;;;5053268;28;20520;-81
2023/07/25 11:30:15;;;;;;;0.50;0.40;;;17.70;99.90;;;;;;5053242;28;20470;-80
2023/07/25 11:32:48;;;;;;;0.50;0.30;;;17.50;99.90;;;;;;5056424;28;20523;-77
2023/07/25 11:35:15;;;;;;;0.50;0.40;;;17.20;99.90;;;;;;5055167;28;20432;-80
2023/07/25 11:37:44;;;;;;;0.50;0.40;;;17.10;99.90;;;;;;5053074;28;20551;-80
2023/07/25 11:40:15;;;;;;;0.50;0.40;;;17.10;99.90;;;;;;5054840;28;21008;-80
2023/07/25 11:42:44;;;;;;;0.50;0.40;;;17.10;99.90;;;;;;5056710;28;20476;-79
2023/07/25 11:45:11;;;;;;;0.50;0.40;;;17.30;99.90;;;;;;5055737;28;20444;-81
2023/07/25 11:47:39;;;;;;;0.50;0.40;;;17.40;99.90;;;;;;5054464;28;20445;-79
2023/07/25 11:50:08;;;;;;;0.50;0.37;;;17.50;99.90;;;;;;5054793;28;20460;-78
2023/07/25 11:52:35;;;;;;;0.50;0.40;;;17.70;99.90;;;;;;5060985;28;20437;-78
2023/07/25 11:55:04;;;;;;;0.50;0.40;;;17.90;99.90;;;;;;5058304;28;20921;-80
2023/07/25 11:57:31;;;;;;;0.50;0.40;;;18.00;99.90;;;;;;5047005;28;20513;-81
2023/07/25 12:00:00;;;;;;;0.50;0.40;;;18.30;99.90;;;;;;5055320;28;20533;-80
2023/07/25 12:02:27;;;;;;;0.50;0.40;;;18.60;99.90;;;;;;5062354;28;20475;-79
2023/07/25 12:04:54;;;;;;;0.50;0.30;;;18.90;99.90;;;;;;5063277;28;20490;-80
2023/07/25 12:07:21;;;;;;;0.50;0.30;;;19.40;99.90;;;;;;5061499;28;20510;-80
2023/07/25 12:09:52;;;;;;;0.50;0.40;;;20.10;99.90;;;;;;5059549;28;20478;-80
2023/07/25 12:12:21;;;;;;;0.50;0.30;;;20.90;99.90;;;;;;5061355;28;20456;-79
2023/07/25 12:14:58;;;;;;;0.50;0.43;;;21.30;99.90;;;;;;5053885;28;20448;-80
2023/07/25 12:17:39;;;;;;;0.50;0.40;;;21.30;99.90;;;;;;5058189;28;20504;-81
2023/07/25 12:20:13;;;;;;;0.50;0.30;;;21.10;99.90;;;;;;5058768;28;20473;-80
2023/07/25 12:22:40;;;;;;;0.50;0.40;;;20.80;99.90;;;;;;5055740;28;20498;-81
2023/07/25 12:25:08;;;;;;;0.50;0.40;;;20.70;99.90;;;;;;5055780;28;20480;-79
2023/07/25 12:27:44;;;;;;;0.50;0.30;;;20.80;99.90;;;;;;5058569;28;20432;-81
2023/07/25 12:30:11;;;;;;;0.50;0.40;;;20.70;99.90;;;;;;5058175;28;20482;-80
2023/07/25 12:32:38;;;;;;;0.50;0.30;;;20.90;99.90;;;;;;5054540;28;20511;-81
2023/07/25 12:35:06;;;;;;;0.50;0.30;;;21.30;99.90;;;;;;5054986;28;20624;-81
2023/07/25 12:37:33;;;;;;;0.50;0.40;;;21.60;99.90;;;;;;5054802;28;20512;-81
2023/07/25 12:39:59;;;;;;;0.50;0.30;;;22.50;99.90;;;;;;5054225;28;20463;-81
2023/07/25 12:42:26;;;;;;;0.50;0.40;;;23.10;99.90;;;;;;5056423;28;20482;-81
2023/07/25 12:44:58;;;;;;;0.50;0.40;;;23.20;99.90;;;;;;5052619;28;20446;-80
2023/07/25 12:47:24;;;;;;;0.50;0.30;;;23.20;99.90;;;;;;5058803;28;20440;-80
2023/07/25 12:49:51;;;;;;;0.50;0.40;;;23.40;99.90;;;;;;5059318;28;20504;-81
2023/07/25 12:52:18;;;;;;;0.50;0.40;;;23.90;99.90;;;;;;5056973;28;20467;-80